Time;durP1;ratioP1;P1;durP2;ratioP2;P2;SDS_P1;SDS_P2;PMS_P1;PMS_P2;Temp;Humidity;BMP_temperature;BMP_pressure;BME280_temperature;BME280_humidity;BME280_pressure;Samples;Min_cycle;Max_cycle;Signal;HPM_P1;HPM_P2
2022/06/15 00:01:12;;;;;;;10.00;7.15;;;;;;;-146.19;100.00;58918.88;5020988;28;20068;-44
2022/06/15 00:03:42;;;;;;;10.70;7.63;;;;;;;-146.19;100.00;58918.88;5028361;28;20069;-44
2022/06/15 00:06:13;;;;;;;9.93;7.55;;;;;;;-146.19;100.00;58918.88;5023939;28;20451;-47
2022/06/15 00:08:42;;;;;;;;;;;;;;;-146.19;100.00;58918.88;5024709;28;20093;-46
2022/06/15 00:11:12;;;;;;;11.82;7.40;;;;;;;-146.19;100.00;58918.88;5021371;28;19975;-55
2022/06/15 00:13:40;;;;;;;9.75;7.18;;;;;;;-146.19;100.00;58918.88;5019804;28;20065;-51
2022/06/15 00:16:09;;;;;;;11.48;7.68;;;;;;;-146.19;100.00;58918.88;5025003;28;20092;-51
2022/06/15 00:18:38;;;;;;;13.48;7.68;;;;;;;-146.19;100.00;58918.88;5022444;28;20065;-50
2022/06/15 00:21:08;;;;;;;10.05;7.30;;;;;;;-146.19;100.00;58918.88;5017387;28;20587;-50
2022/06/15 00:23:36;;;;;;;10.60;6.88;;;;;;;-146.19;100.00;58918.88;5023782;28;20080;-48
2022/06/15 00:26:06;;;;;;;10.07;7.22;;;;;;;-146.19;100.00;58918.88;5020756;28;20075;-44
2022/06/15 00:28:35;;;;;;;10.90;7.25;;;;;;;-146.19;100.00;58918.88;5022425;28;20076;-47
2022/06/15 00:31:04;;;;;;;9.95;7.05;;;;;;;-146.19;100.00;58918.88;5020653;28;20060;-49
2022/06/15 00:33:37;;;;;;;12.38;7.43;;;;;;;-146.19;100.00;58918.88;5025290;28;20068;-46
2022/06/15 00:36:10;;;;;;;11.48;7.38;;;;;;;-146.19;100.00;58918.88;5021878;28;20517;-46
2022/06/15 00:38:41;;;;;;;13.65;7.95;;;;;;;-146.19;100.00;58918.88;5026719;28;20084;-49
2022/06/15 00:41:11;;;;;;;9.13;6.88;;;;;;;-146.19;100.00;58918.88;5026659;28;20073;-47
2022/06/15 00:43:41;;;;;;;10.55;7.65;;;;;;;-146.19;100.00;58918.88;5021608;28;20499;-53
2022/06/15 00:46:22;;;;;;;9.18;7.47;;;;;;;-146.19;100.00;58918.88;5018375;28;20065;-51
2022/06/15 00:48:53;;;;;;;12.02;7.13;;;;;;;-146.19;100.00;58918.88;5029602;28;20069;-50
2022/06/15 00:51:25;;;;;;;14.20;7.70;;;;;;;-146.19;100.00;58918.88;5021235;28;20076;-48
2022/06/15 00:53:54;;;;;;;10.25;7.18;;;;;;;-146.19;100.00;58918.88;5024475;28;20083;-49
2022/06/15 00:56:22;;;;;;;9.95;7.15;;;;;;;-146.19;100.00;58918.88;5022061;28;20085;-47
2022/06/15 00:58:54;;;;;;;12.13;7.68;;;;;;;-146.19;100.00;58918.88;5023342;28;20065;-47
2022/06/15 01:01:22;;;;;;;10.95;7.03;;;;;;;-146.19;100.00;58918.88;5026472;28;20073;-50
2022/06/15 01:03:52;;;;;;;10.40;7.55;;;;;;;-146.19;100.00;58918.88;5024650;28;20499;-49
2022/06/15 01:06:33;;;;;;;10.48;7.75;;;;;;;-146.19;100.00;58918.88;5018476;28;20476;-46
2022/06/15 01:09:05;;;;;;;11.00;7.47;;;;;;;-146.19;100.00;58918.88;5027440;28;20073;-52
2022/06/15 01:11:59;;;;;;;10.57;7.70;;;;;;;-146.19;100.00;58918.88;5028102;28;20100;-49
2022/06/15 01:14:55;;;;;;;17.13;8.10;;;;;;;-146.19;100.00;58918.88;5019346;28;20387;-48
2022/06/15 01:17:34;;;;;;;10.05;7.20;;;;;;;-146.19;100.00;58918.88;5028436;28;20430;-49
2022/06/15 01:20:11;;;;;;;10.93;7.15;;;;;;;-146.19;100.00;58918.88;5018546;28;20069;-47
2022/06/15 01:23:26;;;;;;;11.82;7.30;;;;;;;-146.19;100.00;58918.88;5025138;28;20061;-48
2022/06/15 01:26:21;;;;;;;9.93;7.10;;;;;;;-146.19;100.00;58918.88;4971757;28;20071;-49
2022/06/15 01:28:52;;;;;;;10.38;7.63;;;;;;;-146.19;100.00;58918.88;5021450;28;20088;-51
2022/06/15 01:31:28;;;;;;;9.48;7.22;;;;;;;-146.19;100.00;58918.88;5022395;28;20061;-46
2022/06/15 01:34:03;;;;;;;11.25;7.28;;;;;;;-146.19;100.00;58918.88;5024446;28;20092;-42
2022/06/15 01:36:40;;;;;;;11.63;8.27;;;;;;;-146.19;100.00;58918.88;5019830;28;20068;-47
2022/06/15 01:39:13;;;;;;;14.65;9.98;;;;;;;-146.19;100.00;58918.88;5011252;28;20584;-45
2022/06/15 01:41:46;;;;;;;13.48;8.77;;;;;;;-146.19;100.00;58918.88;5013196;28;20540;-50
2022/06/15 01:44:18;;;;;;;18.30;10.20;;;;;;;-146.19;100.00;58918.88;5023697;28;20088;-54
2022/06/15 01:46:48;;;;;;;13.93;8.32;;;;;;;-146.19;100.00;58918.88;5013417;28;20088;-49
2022/06/15 01:49:22;;;;;;;10.80;8.43;;;;;;;-146.19;100.00;58918.88;5017942;28;20065;-50
2022/06/15 01:51:51;;;;;;;13.63;8.20;;;;;;;-146.19;100.00;58918.88;5025200;28;20461;-52
2022/06/15 01:54:22;;;;;;;14.18;7.45;;;;;;;-146.19;100.00;58918.88;5024640;28;20563;-44
2022/06/15 01:56:52;;;;;;;10.00;7.00;;;;;;;-146.19;100.00;58918.88;5028818;28;20085;-51
2022/06/15 01:59:26;;;;;;;7.47;5.05;;;;;;;-146.19;100.00;58918.88;5029508;28;20096;-50
2022/06/15 02:02:02;;;;;;;7.57;5.15;;;;;;;-146.19;100.00;58918.88;5016750;28;20806;-49
2022/06/15 02:04:36;;;;;;;7.60;5.15;;;;;;;-146.19;100.00;58918.88;5024082;28;20072;-46
2022/06/15 02:07:10;;;;;;;6.97;5.45;;;;;;;-146.19;100.00;58918.88;5022485;28;20655;-46
2022/06/15 02:09:45;;;;;;;9.30;6.60;;;;;;;-146.19;100.00;58918.88;5020547;28;20461;-52
2022/06/15 02:12:14;;;;;;;12.93;8.45;;;;;;;-146.19;100.00;58918.88;5021766;28;20072;-53
2022/06/15 02:14:45;;;;;;;12.53;8.73;;;;;;;-146.19;100.00;58918.88;5019741;28;20519;-46
2022/06/15 02:17:19;;;;;;;10.20;7.22;;;;;;;-146.19;100.00;58918.88;5022631;28;20084;-47
2022/06/15 02:19:51;;;;;;;14.10;8.50;;;;;;;-146.19;100.00;58918.88;5023477;28;20073;-49
2022/06/15 02:22:22;;;;;;;11.48;7.82;;;;;;;-146.19;100.00;58918.88;5024659;28;20636;-44
2022/06/15 02:24:52;;;;;;;11.88;7.70;;;;;;;-146.19;100.00;58918.88;5025668;28;20065;-47
2022/06/15 02:27:22;;;;;;;12.95;8.38;;;;;;;-146.19;100.00;58918.88;5026617;28;20068;-48
2022/06/15 02:29:55;;;;;;;11.85;8.75;;;;;;;-146.19;100.00;58918.88;5023930;28;20080;-57
2022/06/15 02:32:26;;;;;;;10.85;8.45;;;;;;;-146.19;100.00;58918.88;5026975;28;20535;-48
2022/06/15 02:34:54;;;;;;;12.48;8.40;;;;;;;-146.19;100.00;58918.88;5021426;28;20101;-48
2022/06/15 02:37:22;;;;;;;10.63;7.95;;;;;;;-146.19;100.00;58918.88;5025786;28;20103;-46
2022/06/15 02:39:51;;;;;;;9.23;7.18;;;;;;;-146.19;100.00;58918.88;5022044;28;20076;-51
2022/06/15 02:42:26;;;;;;;8.75;6.93;;;;;;;-146.19;100.00;58918.88;5024583;28;20473;-51
2022/06/15 02:44:57;;;;;;;14.18;7.72;;;;;;;-146.19;100.00;58918.88;5022393;28;20461;-47
2022/06/15 02:47:29;;;;;;;12.02;7.65;;;;;;;-146.19;100.00;58918.88;5019253;28;20085;-48
2022/06/15 02:49:58;;;;;;;9.77;7.05;;;;;;;-146.19;100.00;58918.88;5016341;28;20425;-44
2022/06/15 02:52:29;;;;;;;8.93;5.88;;;;;;;-146.19;100.00;58918.88;5022469;28;20081;-53
2022/06/15 02:54:58;;;;;;;7.80;6.70;;;;;;;-146.19;100.00;58918.88;5020664;28;20061;-50
2022/06/15 02:57:27;;;;;;;7.97;6.68;;;;;;;-146.19;100.00;58918.88;5021787;28;20077;-46
2022/06/15 02:59:56;;;;;;;10.75;7.00;;;;;;;-146.19;100.00;58918.88;5022179;28;20077;-53
2022/06/15 03:02:24;;;;;;;10.60;6.75;;;;;;;-146.19;100.00;58918.88;5024615;28;20076;-50
2022/06/15 03:04:54;;;;;;;8.35;5.47;;;;;;;-146.19;100.00;58918.88;5023644;28;20065;-50
2022/06/15 03:07:25;;;;;;;8.13;6.37;;;;;;;-146.19;100.00;58918.88;5020260;28;20065;-46
2022/06/15 03:09:54;;;;;;;8.30;6.47;;;;;;;-146.19;100.00;58918.88;5022524;28;20072;-49
2022/06/15 03:12:22;;;;;;;9.23;6.05;;;;;;;-146.19;100.00;58918.88;5025375;28;20432;-52
2022/06/15 03:14:51;;;;;;;8.15;6.85;;;;;;;-146.19;100.00;58918.88;5024752;28;20077;-48
2022/06/15 03:17:19;;;;;;;9.95;7.45;;;;;;;-146.19;100.00;58918.88;5025258;28;20077;-48
2022/06/15 03:19:47;;;;;;;12.70;8.18;;;;;;;-146.19;100.00;58918.88;5023692;28;20080;-48
2022/06/15 03:22:18;;;;;;;14.18;8.85;;;;;;;-146.19;100.00;58918.88;5025242;28;20038;-45
2022/06/15 03:24:46;;;;;;;12.98;8.48;;;;;;;-146.19;100.00;58918.88;5021666;28;20061;-47
2022/06/15 03:27:14;;;;;;;12.88;8.57;;;;;;;-146.19;100.00;58918.88;5025229;28;20065;-49
2022/06/15 03:29:43;;;;;;;13.85;9.68;;;;;;;-146.19;100.00;58918.88;5023887;28;20073;-47
2022/06/15 03:32:15;;;;;;;12.88;8.80;;;;;;;-146.19;100.00;58918.88;5026097;28;20073;-52
2022/06/15 03:34:44;;;;;;;10.00;7.90;;;;;;;-146.19;100.00;58918.88;5024942;28;20084;-53
2022/06/15 03:37:13;;;;;;;12.70;9.50;;;;;;;-146.19;100.00;58918.88;5024779;28;20069;-49
2022/06/15 03:39:43;;;;;;;12.88;8.07;;;;;;;-146.19;100.00;58918.88;5024615;28;20133;-49
2022/06/15 03:42:14;;;;;;;9.63;7.72;;;;;;;-146.19;100.00;58918.88;5024775;28;20061;-45
2022/06/15 03:44:43;;;;;;;11.73;8.20;;;;;;;-146.19;100.00;58918.88;5021715;28;20092;-48
2022/06/15 03:47:12;;;;;;;13.40;9.25;;;;;;;-146.19;100.00;58918.88;5022497;28;20179;-46
2022/06/15 03:49:42;;;;;;;11.55;7.93;;;;;;;-146.19;100.00;58918.88;5022345;28;20140;-52
2022/06/15 03:52:11;;;;;;;12.13;7.35;;;;;;;-146.19;100.00;58918.88;5021751;28;20065;-50
2022/06/15 03:54:40;;;;;;;10.93;7.05;;;;;;;-146.19;100.00;58918.88;5020967;28;20041;-45
2022/06/15 03:57:10;;;;;;;11.73;7.40;;;;;;;-146.19;100.00;58918.88;5023575;28;20096;-43
2022/06/15 03:59:40;;;;;;;10.57;7.47;;;;;;;-146.19;100.00;58918.88;5023857;28;20073;-52
2022/06/15 04:02:09;;;;;;;10.77;7.97;;;;;;;-146.19;100.00;58918.88;5024999;28;20077;-42
2022/06/15 04:04:37;;;;;;;14.32;6.68;;;;;;;-146.19;100.00;58918.88;5020632;28;20069;-48
2022/06/15 04:08:34;;;;;;;11.50;6.88;;;;;;;-146.19;100.00;58918.88;5021995;28;20755;-53
2022/06/15 04:09:55;;;;;;;13.30;7.10;;;;;;;-146.19;100.00;58918.88;5014494;28;20461;-48
2022/06/15 04:12:25;;;;;;;11.80;7.63;;;;;;;-146.19;100.00;58918.88;5017601;28;20072;-47
2022/06/15 04:14:53;;;;;;;13.93;8.43;;;;;;;-146.19;100.00;58918.88;5020604;28;20095;-48
2022/06/15 04:17:22;;;;;;;11.95;8.85;;;;;;;-146.19;100.00;58918.88;5021521;28;20077;-48
2022/06/15 04:22:33;;;;;;;13.30;9.48;;;;;;;-146.19;100.00;58918.88;5019557;28;20073;-53
2022/06/15 04:25:02;;;;;;;14.27;9.10;;;;;;;-146.19;100.00;58918.88;5018820;28;20065;-46
2022/06/15 04:27:32;;;;;;;17.20;10.13;;;;;;;-146.19;100.00;58918.88;5020438;28;20068;-44
2022/06/15 04:30:01;;;;;;;13.25;9.20;;;;;;;-146.19;100.00;58918.88;5016527;28;20104;-44
2022/06/15 04:32:29;;;;;;;15.85;10.07;;;;;;;-146.19;100.00;58918.88;5020334;28;20087;-52
2022/06/15 04:34:58;;;;;;;14.40;9.73;;;;;;;-146.19;100.00;58918.88;5016686;28;20064;-51
2022/06/15 04:37:26;;;;;;;15.70;8.80;;;;;;;-146.19;100.00;58918.88;5016279;28;20073;-47
2022/06/15 04:39:54;;;;;;;13.93;8.63;;;;;;;-146.19;100.00;58918.88;5018971;28;20439;-49
2022/06/15 04:42:23;;;;;;;13.13;9.20;;;;;;;-146.19;100.00;58918.88;5020526;28;20062;-47
2022/06/15 04:44:53;;;;;;;13.63;9.55;;;;;;;-146.19;100.00;58918.88;5019227;28;20069;-45
2022/06/15 04:47:21;;;;;;;11.38;8.27;;;;;;;-146.19;100.00;58918.88;5023857;28;20073;-54
2022/06/15 04:49:50;;;;;;;13.20;9.77;;;;;;;-146.19;100.00;58918.88;5020595;28;20073;-50
2022/06/15 04:52:18;;;;;;;15.13;8.60;;;;;;;-146.19;100.00;58918.88;5027023;28;20555;-50
2022/06/15 04:54:46;;;;;;;13.85;8.90;;;;;;;-146.19;100.00;58918.88;5025204;28;20065;-49
2022/06/15 04:57:15;;;;;;;13.82;9.48;;;;;;;-146.19;100.00;58918.88;5026296;28;20072;-51
2022/06/15 04:59:43;;;;;;;11.07;8.75;;;;;;;-146.19;100.00;58918.88;5022692;28;20054;-44
2022/06/15 05:02:13;;;;;;;12.02;7.95;;;;;;;-146.19;100.00;58918.88;5021474;28;20092;-52
2022/06/15 05:04:42;;;;;;;13.95;8.70;;;;;;;-146.19;100.00;58918.88;5021105;28;20068;-51
2022/06/15 05:07:11;;;;;;;14.25;9.00;;;;;;;-146.19;100.00;58918.88;5024370;28;20064;-49
2022/06/15 05:09:40;;;;;;;12.85;8.00;;;;;;;-146.19;100.00;58918.88;5020569;28;20069;-52
2022/06/15 05:12:09;;;;;;;13.15;8.73;;;;;;;-146.19;100.00;58918.88;5023890;28;20435;-52
2022/06/15 05:14:37;;;;;;;14.63;9.07;;;;;;;-146.19;100.00;58918.88;5023822;28;20081;-50
2022/06/15 05:17:06;;;;;;;13.23;8.48;;;;;;;-146.19;100.00;58918.88;5023918;28;20053;-50
2022/06/15 05:19:36;;;;;;;11.00;7.63;;;;;;;-146.19;100.00;58918.88;5020857;28;20620;-48
2022/06/15 05:22:05;;;;;;;12.70;8.43;;;;;;;-146.19;100.00;58918.88;5025975;28;20535;-48
2022/06/15 05:24:33;;;;;;;11.35;8.60;;;;;;;-146.19;100.00;58918.88;5023410;28;20111;-47
2022/06/15 05:27:02;;;;;;;12.07;8.77;;;;;;;-146.19;100.00;58918.88;5023570;28;20071;-51
2022/06/15 05:29:31;;;;;;;12.30;8.75;;;;;;;-146.19;100.00;58918.88;5023343;28;20066;-50
2022/06/15 05:32:01;;;;;;;11.17;8.30;;;;;;;-146.19;100.00;58918.88;5041800;28;20068;-50
2022/06/15 05:34:29;;;;;;;10.82;8.38;;;;;;;-146.19;100.00;58918.88;5024461;28;20037;-49
2022/06/15 05:37:01;;;;;;;12.10;8.40;;;;;;;-146.19;100.00;58918.88;5024252;28;20049;-46
2022/06/15 05:39:29;;;;;;;;;;;;;;;-146.19;100.00;58918.88;5024392;28;20053;-51
2022/06/15 05:41:57;;;;;;;10.52;8.77;;;;;;;-146.19;100.00;58918.88;5024755;28;19932;-53
2022/06/15 05:44:30;;;;;;;10.88;8.20;;;;;;;-146.19;100.00;58918.88;5021116;28;20077;-47
2022/06/15 05:47:00;;;;;;;10.93;8.77;;;;;;;-146.19;100.00;58918.88;5021276;28;20069;-48
2022/06/15 05:49:28;;;;;;;;;;;;;;;-146.19;100.00;58918.88;5024742;28;20451;-48
2022/06/15 05:51:57;;;;;;;9.85;7.30;;;;;;;-146.19;100.00;58918.88;5021879;28;19964;-51
2022/06/15 05:54:27;;;;;;;11.27;7.55;;;;;;;-146.19;100.00;58918.88;5023981;28;20065;-51
2022/06/15 05:56:55;;;;;;;10.55;7.00;;;;;;;-146.19;100.00;58918.88;5022633;28;20085;-51
2022/06/15 05:59:24;;;;;;;14.88;7.45;;;;;;;-146.19;100.00;58918.88;5022024;28;20081;-53
2022/06/15 06:01:52;;;;;;;10.13;7.60;;;;;;;-146.19;100.00;58918.88;5021312;28;20074;-45
2022/06/15 06:04:21;;;;;;;11.45;7.63;;;;;;;-146.19;100.00;58918.88;5026994;28;20485;-46
2022/06/15 06:06:50;;;;;;;13.98;7.60;;;;;;;-146.19;100.00;58918.88;5017376;28;20076;-49
2022/06/15 06:09:18;;;;;;;10.55;7.30;;;;;;;-146.19;100.00;58918.88;5012459;28;20065;-48
2022/06/15 06:11:49;;;;;;;18.98;7.47;;;;;;;-146.19;100.00;58918.88;5020252;28;20081;-51
2022/06/15 06:14:17;;;;;;;;;;;;;;;-146.19;100.00;58918.88;5022305;28;20079;-48
2022/06/15 06:16:45;;;;;;;11.55;7.18;;;;;;;-146.19;100.00;58918.88;4995841;28;19968;-48
2022/06/15 06:19:14;;;;;;;12.43;7.20;;;;;;;-146.19;100.00;58918.88;5012611;28;20103;-54
2022/06/15 06:21:43;;;;;;;10.80;7.32;;;;;;;-146.19;100.00;58918.88;5026274;28;20069;-46
2022/06/15 06:24:12;;;;;;;16.15;7.70;;;;;;;-146.19;100.00;58918.88;5019324;28;20057;-53
2022/06/15 06:26:42;;;;;;;11.93;7.45;;;;;;;-146.19;100.00;58918.88;5022660;28;20088;-47
2022/06/15 06:29:13;;;;;;;9.70;6.32;;;;;;;-146.19;100.00;58918.88;5028756;28;20073;-47
2022/06/15 06:31:41;;;;;;;10.82;6.78;;;;;;;-146.19;100.00;58918.88;5022892;28;20069;-46
2022/06/15 06:34:11;;;;;;;9.07;6.30;;;;;;;-146.19;100.00;58918.88;5024905;28;20069;-50
2022/06/15 06:36:42;;;;;;;13.75;7.07;;;;;;;-146.19;100.00;58918.88;5018026;28;20073;-49
2022/06/15 06:39:12;;;;;;;;;;;;;;;-146.19;100.00;58918.88;5021618;28;20057;-50
2022/06/15 06:41:41;;;;;;;11.43;7.07;;;;;;;-146.19;100.00;58918.88;5023562;28;19955;-50
2022/06/15 06:44:12;;;;;;;11.75;6.10;;;;;;;-146.19;100.00;58918.88;5016359;28;20369;-47
2022/06/15 06:46:43;;;;;;;13.52;7.30;;;;;;;-146.19;100.00;58918.88;5019637;28;20077;-50
2022/06/15 06:49:12;;;;;;;9.30;6.40;;;;;;;-146.19;100.00;58918.88;5029127;28;20072;-46
2022/06/15 06:51:42;;;;;;;11.63;6.65;;;;;;;-146.19;100.00;58918.88;5016148;28;20053;-51
2022/06/15 06:54:12;;;;;;;11.13;6.32;;;;;;;-146.19;100.00;58918.88;5022981;28;20461;-47
2022/06/15 06:56:40;;;;;;;8.57;5.93;;;;;;;-146.19;100.00;58918.88;5022732;28;20081;-52
2022/06/15 06:59:11;;;;;;;9.68;5.85;;;;;;;-146.19;100.00;58918.88;5022011;28;20372;-49
2022/06/15 07:01:42;;;;;;;8.00;5.80;;;;;;;-146.19;100.00;58918.88;5022627;28;20069;-49
2022/06/15 07:04:12;;;;;;;10.85;6.68;;;;;;;-146.19;100.00;58918.88;5010150;28;20460;-48
2022/06/15 07:06:41;;;;;;;10.88;6.65;;;;;;;-146.19;100.00;58918.88;5024155;28;20080;-46
2022/06/15 07:09:10;;;;;;;8.52;6.15;;;;;;;-146.19;100.00;58918.88;5027302;28;20057;-46
2022/06/15 07:11:39;;;;;;;9.75;6.13;;;;;;;-146.19;100.00;58918.88;5021038;28;20064;-50
2022/06/15 07:14:08;;;;;;;8.68;6.05;;;;;;;-146.19;100.00;58918.88;5022035;28;20527;-46
2022/06/15 07:16:42;;;;;;;9.15;6.03;;;;;;;-146.19;100.00;58918.88;5025748;28;20069;-49
2022/06/15 07:19:11;;;;;;;;;;;;;;;-146.19;100.00;58918.88;5023336;28;20066;-48
2022/06/15 07:21:40;;;;;;;10.55;5.47;;;;;;;-146.19;100.00;58918.88;5018335;28;19949;-50
2022/06/15 07:24:09;;;;;;;9.10;6.00;;;;;;;-146.19;100.00;58918.88;5028868;28;20072;-45
2022/06/15 07:26:42;;;;;;;10.10;5.80;;;;;;;-146.19;100.00;58918.88;5025612;28;20535;-47
2022/06/15 07:29:12;;;;;;;8.27;5.72;;;;;;;-146.19;100.00;58918.88;5009989;28;20496;-43
2022/06/15 07:31:45;;;;;;;13.23;6.23;;;;;;;-146.19;100.00;58918.88;5022575;28;20528;-48
2022/06/15 07:34:13;;;;;;;7.60;5.25;;;;;;;-146.19;100.00;58918.88;5028342;28;20069;-48
2022/06/15 07:36:46;;;;;;;13.10;5.93;;;;;;;-146.19;100.00;58918.88;5014946;28;20076;-47
2022/06/15 07:39:16;;;;;;;9.23;5.40;;;;;;;-146.19;100.00;58918.88;5015576;28;20122;-48
2022/06/15 07:42:11;;;;;;;9.65;4.85;;;;;;;-146.19;100.00;58918.88;5012130;28;20061;-46
2022/06/15 07:44:40;;;;;;;8.30;5.18;;;;;;;-146.19;100.00;58918.88;5024359;28;20085;-51
2022/06/15 07:49:57;;;;;;;7.50;4.95;;;;;;;-146.19;100.00;58918.88;5017921;28;20075;-48
2022/06/15 07:52:49;;;;;;;8.07;5.18;;;;;;;-146.19;100.00;58918.88;5021145;28;20066;-48
2022/06/15 07:55:37;;;;;;;6.93;5.40;;;;;;;-146.19;100.00;58918.88;5025909;28;20069;-48
2022/06/15 07:58:07;;;;;;;11.25;5.50;;;;;;;-146.19;100.00;58918.88;5022448;28;20081;-47
2022/06/15 08:00:37;;;;;;;8.63;5.23;;;;;;;-146.19;100.00;58918.88;5018681;28;20068;-51
2022/06/15 08:03:09;;;;;;;8.00;4.80;;;;;;;-146.19;100.00;58918.88;5014670;28;20058;-53
2022/06/15 08:05:41;;;;;;;8.07;4.63;;;;;;;-146.19;100.00;58918.88;5022380;28;20085;-46
2022/06/15 08:08:12;;;;;;;8.45;4.93;;;;;;;-146.19;100.00;58918.88;5014826;28;20077;-46
2022/06/15 08:10:41;;;;;;;7.00;5.05;;;;;;;-146.19;100.00;58918.88;5012781;28;20135;-47
2022/06/15 08:13:10;;;;;;;7.93;4.82;;;;;;;-146.19;100.00;58918.88;5013307;28;20077;-44
2022/06/15 08:15:41;;;;;;;9.35;4.95;;;;;;;-146.19;100.00;58918.88;5010491;28;20518;-44
2022/06/15 08:18:13;;;;;;;9.40;5.20;;;;;;;-146.19;100.00;58918.88;5020778;28;20065;-43
2022/06/15 08:20:44;;;;;;;6.57;5.00;;;;;;;-146.19;100.00;58918.88;5025845;28;20488;-48
2022/06/15 08:23:15;;;;;;;16.15;5.40;;;;;;;-146.19;100.00;58918.88;5024598;28;20090;-49
2022/06/15 08:25:46;;;;;;;8.13;5.43;;;;;;;-146.19;100.00;58918.88;5018759;28;20080;-48
2022/06/15 08:28:18;;;;;;;7.18;4.55;;;;;;;-146.19;100.00;58918.88;5030111;28;20065;-48
2022/06/15 08:30:52;;;;;;;10.32;4.93;;;;;;;-146.19;100.00;58918.88;5022009;28;20072;-47
2022/06/15 08:33:23;;;;;;;8.25;4.90;;;;;;;-146.19;100.00;58918.88;5028440;28;20461;-48
2022/06/15 08:35:52;;;;;;;7.65;4.63;;;;;;;-146.19;100.00;58918.88;5023551;28;20069;-50
2022/06/15 08:38:22;;;;;;;10.23;4.80;;;;;;;-146.19;100.00;58918.88;5019331;28;20096;-48
2022/06/15 08:40:54;;;;;;;10.10;4.68;;;;;;;-146.19;100.00;58918.88;5025360;28;20064;-51
2022/06/15 08:43:42;;;;;;;7.68;4.80;;;;;;;-146.19;100.00;58918.88;5018576;28;20077;-48
2022/06/15 08:46:18;;;;;;;7.50;4.45;;;;;;;-146.19;100.00;58918.88;5024624;28;20080;-43
2022/06/15 08:48:58;;;;;;;7.97;5.05;;;;;;;-146.19;100.00;58918.88;5018430;28;20076;-50
2022/06/15 08:51:31;;;;;;;7.97;5.10;;;;;;;-146.19;100.00;58918.88;5025001;28;20068;-50
2022/06/15 08:54:03;;;;;;;7.15;5.07;;;;;;;-146.19;100.00;58918.88;5025305;28;20455;-55
2022/06/15 08:56:37;;;;;;;7.07;3.97;;;;;;;-146.19;100.00;58918.88;5021579;28;20065;-48
2022/06/15 08:59:11;;;;;;;8.68;4.85;;;;;;;-146.19;100.00;58918.88;5025341;28;20072;-47
2022/06/15 09:01:43;;;;;;;7.30;4.78;;;;;;;-146.19;100.00;58918.88;5025416;28;20057;-47
2022/06/15 09:04:21;;;;;;;9.30;4.43;;;;;;;-146.19;100.00;58918.88;5023994;28;20076;-48
2022/06/15 09:07:10;;;;;;;8.07;4.55;;;;;;;-146.19;100.00;58918.88;5020990;28;20084;-46
2022/06/15 09:10:12;;;;;;;6.68;4.43;;;;;;;-146.19;100.00;58918.88;5022516;28;20073;-48
2022/06/15 09:13:16;;;;;;;7.03;4.40;;;;;;;-146.19;100.00;58918.88;5023356;28;20064;-46
2022/06/15 09:15:51;;;;;;;6.45;4.63;;;;;;;-146.19;100.00;58918.88;5023014;28;20115;-48
2022/06/15 09:18:24;;;;;;;6.15;4.40;;;;;;;-146.19;100.00;58918.88;5024394;28;20460;-48
2022/06/15 09:21:21;;;;;;;8.20;4.55;;;;;;;-146.19;100.00;58918.88;5017859;28;20065;-52
2022/06/15 09:23:53;;;;;;;7.93;4.38;;;;;;;-146.19;100.00;58918.88;5022474;28;20088;-46
2022/06/15 09:26:26;;;;;;;7.45;4.50;;;;;;;-146.19;100.00;58918.88;5025115;28;20060;-46
2022/06/15 09:28:59;;;;;;;8.02;3.75;;;;;;;-146.19;100.00;58918.88;5022250;28;20074;-51
2022/06/15 09:31:32;;;;;;;7.97;3.88;;;;;;;-146.19;100.00;58918.88;5018934;28;20061;-47
2022/06/15 09:34:03;;;;;;;7.85;4.22;;;;;;;-146.19;100.00;58918.88;5025901;28;20080;-50
2022/06/15 09:36:37;;;;;;;10.30;3.90;;;;;;;-146.19;100.00;58918.88;5016997;28;20061;-45
2022/06/15 09:39:05;;;;;;;5.57;3.65;;;;;;;-146.19;100.00;58918.88;5024060;28;20069;-50
2022/06/15 09:41:42;;;;;;;7.72;3.70;;;;;;;-146.19;100.00;58918.88;5018247;28;20069;-46
2022/06/15 09:44:18;;;;;;;5.55;3.70;;;;;;;-146.19;100.00;58918.88;5009418;28;21673;-48
2022/06/15 09:47:12;;;;;;;5.70;3.88;;;;;;;-146.19;100.00;58918.88;5024470;28;20460;-48
2022/06/15 09:49:48;;;;;;;5.22;3.60;;;;;;;-146.19;100.00;58918.88;5026355;28;20084;-48
2022/06/15 09:52:25;;;;;;;6.07;3.88;;;;;;;-146.19;100.00;58918.88;5019234;28;20136;-53
2022/06/15 09:55:00;;;;;;;5.88;3.78;;;;;;;-146.19;100.00;58918.88;5022253;28;20460;-51
2022/06/15 09:57:29;;;;;;;5.35;3.80;;;;;;;-146.19;100.00;58918.88;5029907;28;20076;-45
2022/06/15 09:59:57;;;;;;;6.50;3.95;;;;;;;-146.19;100.00;58918.88;5016738;28;20094;-48
2022/06/15 10:02:28;;;;;;;6.93;4.47;;;;;;;-146.19;100.00;58918.88;5027837;28;20461;-44
2022/06/15 10:04:58;;;;;;;6.10;4.13;;;;;;;-146.19;100.00;58918.88;5016965;28;20065;-51
2022/06/15 10:07:32;;;;;;;5.15;3.45;;;;;;;-146.19;100.00;58918.88;5017002;28;20082;-49
2022/06/15 10:10:07;;;;;;;6.20;3.60;;;;;;;-146.19;100.00;58918.88;5024843;28;20076;-48
2022/06/15 10:13:02;;;;;;;6.00;3.70;;;;;;;-146.19;100.00;58918.88;5029836;28;20531;-47
2022/06/15 10:15:34;;;;;;;6.85;3.55;;;;;;;-146.19;100.00;58918.88;5012563;28;20061;-48
2022/06/15 10:18:15;;;;;;;6.22;3.42;;;;;;;-146.19;100.00;58918.88;5029443;28;20064;-53
2022/06/15 10:20:55;;;;;;;4.80;3.70;;;;;;;-146.19;100.00;58918.88;5036321;28;20092;-52
2022/06/15 10:23:28;;;;;;;;;;;;;;;-146.19;100.00;58918.88;5025562;28;20069;-49
2022/06/15 10:25:57;;;;;;;4.85;3.40;;;;;;;-146.19;100.00;58918.88;5023660;28;19964;-46
2022/06/15 10:28:35;;;;;;;5.40;3.17;;;;;;;-146.19;100.00;58918.88;5026939;28;20060;-49
2022/06/15 10:31:07;;;;;;;6.70;3.25;;;;;;;-146.19;100.00;58918.88;5021694;28;20068;-50
2022/06/15 10:33:37;;;;;;;3.67;2.70;;;;;;;-146.19;100.00;58918.88;5019428;28;20081;-45
2022/06/15 10:36:07;;;;;;;;;;;;;;;-146.19;100.00;58918.88;5022978;28;20065;-47
2022/06/15 10:38:41;;;;;;;6.90;2.90;;;;;;;-146.19;100.00;58918.88;5021975;28;20435;-45
2022/06/15 10:43:56;;;;;;;3.95;2.63;;;;;;;-146.19;100.00;58918.88;5022291;28;20065;-43
2022/06/15 10:46:24;;;;;;;3.45;2.58;;;;;;;-146.19;100.00;58918.88;5020601;28;20069;-44
2022/06/15 10:48:57;;;;;;;3.03;2.40;;;;;;;-146.19;100.00;58918.88;5023039;28;20068;-52
2022/06/15 10:51:32;;;;;;;3.58;2.60;;;;;;;-146.19;100.00;58918.88;5028091;28;20061;-48
2022/06/15 10:54:21;;;;;;;4.00;2.60;;;;;;;-146.19;100.00;58918.88;5024733;28;20073;-50
2022/06/15 11:02:30;;;;;;;5.65;2.72;;;;;;;-146.19;100.00;58918.88;5014530;28;20427;-46
2022/06/15 11:05:03;;;;;;;4.60;3.00;;;;;;;-146.19;100.00;58918.88;5010289;28;20524;-50
2022/06/15 11:07:37;;;;;;;5.88;2.60;;;;;;;-146.19;100.00;58918.88;5019386;28;20072;-51
2022/06/15 11:10:13;;;;;;;3.05;2.47;;;;;;;-146.19;100.00;58918.88;5015171;28;20120;-45
2022/06/15 11:12:44;;;;;;;3.28;2.50;;;;;;;-146.19;100.00;58918.88;5019612;28;20068;-47
2022/06/15 11:18:01;;;;;;;4.32;2.70;;;;;;;-146.19;100.00;58918.88;5024644;28;20079;-47
2022/06/15 11:18:22;;;;;;;3.03;2.45;;;;;;;-146.19;100.00;58918.88;5009608;28;20119;-45
2022/06/15 11:20:54;;;;;;;3.42;2.40;;;;;;;-146.19;100.00;58918.88;5028276;28;20084;-50
2022/06/15 11:23:26;;;;;;;7.53;2.70;;;;;;;-146.19;100.00;58918.88;5016817;28;20084;-48
2022/06/15 11:26:01;;;;;;;4.57;2.55;;;;;;;-146.19;100.00;58918.88;5021074;28;20073;-48
2022/06/15 11:28:33;;;;;;;3.47;2.20;;;;;;;-146.19;100.00;58918.88;5020848;28;20065;-49
2022/06/15 11:31:04;;;;;;;6.68;2.90;;;;;;;-146.19;100.00;58918.88;5026418;28;20072;-47
2022/06/15 11:33:38;;;;;;;4.63;2.80;;;;;;;-146.19;100.00;58918.88;5028169;28;20073;-46
2022/06/15 11:36:13;;;;;;;5.20;2.70;;;;;;;-146.19;100.00;58918.88;5021732;28;20064;-46
2022/06/15 11:38:48;;;;;;;5.78;2.78;;;;;;;-146.19;100.00;58918.88;5017345;28;20100;-49
2022/06/15 11:41:23;;;;;;;4.93;2.67;;;;;;;-146.19;100.00;58918.88;5028829;28;20081;-54
2022/06/15 11:43:53;;;;;;;4.50;2.60;;;;;;;-146.19;100.00;58918.88;5027708;28;20073;-46